createdAt,value
2017-11-12T00:00:32.006Z,0
2017-11-12T00:01:33.672Z,0
2017-11-12T00:02:35.295Z,0
2017-11-12T00:03:36.906Z,0
2017-11-12T00:04:38.535Z,0
2017-11-12T00:05:40.233Z,0
2017-11-12T00:06:41.859Z,0
2017-11-12T00:07:43.577Z,0
2017-11-12T00:08:45.211Z,0
2017-11-12T00:09:46.910Z,0
2017-11-12T00:10:48.530Z,0
2017-11-12T00:11:50.199Z,0
2017-11-12T00:12:51.821Z,0
2017-11-12T00:13:53.490Z,0
2017-11-12T00:14:55.080Z,0
2017-11-12T00:15:56.751Z,0
2017-11-12T00:16:58.409Z,0
2017-11-12T00:18:00.022Z,0
2017-11-12T00:19:01.685Z,0
2017-11-12T00:20:03.325Z,0
2017-11-12T00:21:05.009Z,0
2017-11-12T00:22:06.680Z,0
2017-11-12T00:23:08.291Z,0
2017-11-12T00:24:09.935Z,0
2017-11-12T00:25:11.572Z,0
2017-11-12T00:26:13.190Z,0
2017-11-12T00:27:14.810Z,0
2017-11-12T00:28:16.423Z,0
2017-11-12T00:29:18.083Z,0
2017-11-12T00:30:19.705Z,0
2017-11-12T00:31:21.317Z,0
2017-11-12T00:32:22.966Z,0
2017-11-12T00:33:24.593Z,0
2017-11-12T00:34:26.219Z,0
2017-11-12T00:35:27.928Z,0
2017-11-12T00:36:29.544Z,0
2017-11-12T00:37:31.158Z,0
2017-11-12T00:38:32.781Z,0
2017-11-12T00:39:34.393Z,0
2017-11-12T00:40:36.053Z,0
2017-11-12T00:41:37.667Z,0
2017-11-12T00:42:39.332Z,0
2017-11-12T00:43:40.958Z,0
2017-11-12T00:44:42.626Z,0
2017-11-12T00:45:44.287Z,0
2017-11-12T00:46:45.930Z,0
2017-11-12T00:47:47.595Z,0
2017-11-12T00:48:49.265Z,0
2017-11-12T00:49:50.895Z,0
2017-11-12T00:50:52.503Z,0
2017-11-12T00:51:54.187Z,0
2017-11-12T00:52:55.846Z,0
2017-11-12T00:53:57.491Z,0
2017-11-12T00:54:59.107Z,0
2017-11-12T00:56:00.720Z,0
2017-11-12T00:57:02.332Z,0
2017-11-12T00:58:03.954Z,0
2017-11-12T00:59:05.677Z,0
2017-11-12T01:00:07.276Z,0
2017-11-12T01:01:08.888Z,0
2017-11-12T01:02:10.508Z,0
2017-11-12T01:03:12.148Z,0
2017-11-12T01:04:13.847Z,0
2017-11-12T01:05:15.462Z,0
2017-11-12T01:06:17.075Z,0
2017-11-12T01:07:18.687Z,0
2017-11-12T01:08:20.302Z,0
2017-11-12T01:09:21.952Z,0
2017-11-12T01:10:23.567Z,0
2017-11-12T01:11:25.293Z,0
2017-11-12T01:12:26.992Z,0
2017-11-12T01:13:28.684Z,0
2017-11-12T01:14:30.352Z,0
2017-11-12T01:15:31.979Z,0
2017-11-12T01:16:33.660Z,0
2017-11-12T01:17:35.340Z,0
2017-11-12T01:18:37.019Z,0
2017-11-12T01:19:38.651Z,0
2017-11-12T01:20:40.277Z,0
2017-11-12T01:21:41.970Z,0
2017-11-12T01:22:43.579Z,0
2017-11-12T01:23:45.191Z,0
2017-11-12T01:24:46.823Z,0
2017-11-12T01:25:48.440Z,0
2017-11-12T01:26:50.116Z,0
2017-11-12T01:27:51.808Z,0
2017-11-12T01:28:53.525Z,0
2017-11-12T01:29:55.185Z,0
2017-11-12T01:30:56.874Z,0
2017-11-12T01:31:58.486Z,0
2017-11-12T01:33:00.207Z,0
2017-11-12T01:34:01.818Z,0
2017-11-12T01:35:03.482Z,0
2017-11-12T01:36:05.149Z,0
2017-11-12T01:37:06.764Z,0
2017-11-12T01:38:08.484Z,0
2017-11-12T01:39:10.101Z,0
2017-11-12T01:40:11.772Z,0
2017-11-12T01:41:13.393Z,0
2017-11-12T01:42:14.994Z,0
2017-11-12T01:43:16.692Z,0
2017-11-12T01:44:18.366Z,0
2017-11-12T01:45:19.982Z,0
2017-11-12T01:46:21.711Z,0
2017-11-12T01:47:23.397Z,0
2017-11-12T01:48:25.010Z,0
2017-11-12T01:49:26.617Z,0
2017-11-12T01:50:28.238Z,0
2017-11-12T01:51:29.949Z,0
2017-11-12T01:52:31.610Z,0
2017-11-12T01:53:33.323Z,0
2017-11-12T01:54:34.937Z,0
2017-11-12T01:55:36.546Z,0
2017-11-12T01:56:38.158Z,0
2017-11-12T01:57:39.770Z,0
2017-11-12T01:58:41.401Z,0
2017-11-12T01:59:43.055Z,0
2017-11-12T02:00:44.692Z,0
2017-11-12T02:01:46.385Z,0
2017-11-12T02:02:48.090Z,0
2017-11-12T02:03:49.796Z,0
2017-11-12T02:04:51.514Z,0
2017-11-12T02:05:53.227Z,0
2017-11-12T02:06:54.837Z,0
2017-11-12T02:07:56.533Z,0
2017-11-12T02:08:58.149Z,0
2017-11-12T02:09:59.764Z,0
2017-11-12T02:11:01.374Z,0
2017-11-12T02:12:03.020Z,0
2017-11-12T02:13:04.638Z,0
2017-11-12T02:14:06.248Z,0
2017-11-12T02:15:07.883Z,0
2017-11-12T02:16:09.488Z,0
2017-11-12T02:17:11.104Z,0
2017-11-12T02:18:12.768Z,0
2017-11-12T02:19:14.382Z,0
2017-11-12T02:20:15.998Z,0
2017-11-12T02:21:17.607Z,0
2017-11-12T02:22:19.295Z,0
2017-11-12T02:23:20.968Z,0
2017-11-12T02:24:22.641Z,0
2017-11-12T02:25:24.259Z,0
2017-11-12T02:26:25.870Z,0
2017-11-12T02:27:27.487Z,0
2017-11-12T02:28:29.124Z,0
2017-11-12T02:29:30.750Z,0
2017-11-12T02:30:32.376Z,0
2017-11-12T02:31:33.974Z,0
2017-11-12T02:32:35.639Z,0
2017-11-12T02:33:37.345Z,0
2017-11-12T02:34:39.059Z,0
2017-11-12T02:35:40.704Z,0
2017-11-12T02:36:42.322Z,0
2017-11-12T02:37:43.966Z,0
2017-11-12T02:38:45.597Z,0
2017-11-12T02:39:47.306Z,0
2017-11-12T02:40:48.974Z,0
2017-11-12T02:41:50.599Z,0
2017-11-12T02:42:52.214Z,0
2017-11-12T02:43:53.931Z,0
2017-11-12T02:44:55.645Z,0
2017-11-12T02:45:57.341Z,0
2017-11-12T02:46:58.957Z,0
2017-11-12T02:48:00.566Z,0
2017-11-12T02:49:02.178Z,0
2017-11-12T02:50:03.833Z,0
2017-11-12T02:51:05.462Z,0
2017-11-12T02:52:07.131Z,0
2017-11-12T02:53:08.803Z,0
2017-11-12T02:54:10.461Z,0
2017-11-12T02:55:12.096Z,0
2017-11-12T02:56:13.781Z,0
2017-11-12T02:57:15.464Z,0
2017-11-12T02:58:17.118Z,0
2017-11-12T02:59:18.784Z,0
2017-11-12T03:00:20.406Z,0
2017-11-12T03:01:22.080Z,0
2017-11-12T03:02:23.768Z,0
2017-11-12T03:03:25.372Z,0
2017-11-12T03:04:26.981Z,0
2017-11-12T03:05:28.653Z,0
2017-11-12T03:06:30.264Z,0
2017-11-12T03:07:31.960Z,0
2017-11-12T03:08:33.575Z,0
2017-11-12T03:09:35.183Z,0
2017-11-12T03:10:36.896Z,0
2017-11-12T03:11:38.512Z,0
2017-11-12T03:12:40.129Z,0
2017-11-12T03:13:41.810Z,0
2017-11-12T03:14:43.434Z,0
2017-11-12T03:15:45.089Z,0
2017-11-12T03:16:46.702Z,0
2017-11-12T03:17:48.357Z,0
2017-11-12T03:18:50.069Z,0
2017-11-12T03:19:51.684Z,0
2017-11-12T03:20:53.307Z,0
2017-11-12T03:21:54.965Z,0
2017-11-12T03:22:56.584Z,0
2017-11-12T03:23:58.200Z,0
2017-11-12T03:24:59.867Z,0
2017-11-12T03:26:01.489Z,0
2017-11-12T03:27:03.184Z,0
2017-11-12T03:28:04.853Z,0
2017-11-12T03:29:06.467Z,0
2017-11-12T03:30:08.136Z,0
2017-11-12T03:31:09.823Z,0
2017-11-12T03:32:11.444Z,0
2017-11-12T03:33:13.049Z,0
2017-11-12T03:34:14.723Z,0
2017-11-12T03:35:16.428Z,0
2017-11-12T03:36:18.073Z,0
2017-11-12T03:37:19.686Z,0
2017-11-12T03:38:21.302Z,0
2017-11-12T03:39:22.910Z,0
2017-11-12T03:40:24.521Z,0
2017-11-12T03:41:26.149Z,0
2017-11-12T03:42:27.791Z,0
2017-11-12T03:43:29.396Z,0
2017-11-12T03:44:31.092Z,0
2017-11-12T03:45:32.714Z,0
2017-11-12T03:46:34.331Z,0
2017-11-12T03:47:35.938Z,0
2017-11-12T03:48:37.615Z,0
2017-11-12T03:49:39.228Z,0
2017-11-12T03:50:40.846Z,0
2017-11-12T03:51:42.486Z,0
2017-11-12T03:52:44.066Z,0
2017-11-12T03:53:45.684Z,0
2017-11-12T03:54:47.388Z,0
2017-11-12T03:55:49.054Z,0
2017-11-12T03:56:50.669Z,0
2017-11-12T03:57:52.365Z,0
2017-11-12T03:58:54.040Z,0
2017-11-12T03:59:55.733Z,0
2017-11-12T04:00:57.394Z,0
2017-11-12T04:01:59.073Z,0
2017-11-12T04:03:00.748Z,0
2017-11-12T04:04:02.402Z,0
2017-11-12T04:05:04.010Z,0
2017-11-12T04:06:05.622Z,0
2017-11-12T04:07:07.236Z,0
2017-11-12T04:08:08.850Z,0
2017-11-12T04:09:10.473Z,0
2017-11-12T04:10:12.082Z,0
2017-11-12T04:11:13.718Z,0
2017-11-12T04:12:15.301Z,0
2017-11-12T04:13:16.924Z,0
2017-11-12T04:14:18.536Z,0
2017-11-12T04:15:20.213Z,0
2017-11-12T04:16:21.835Z,0
2017-11-12T04:17:23.477Z,0
2017-11-12T04:18:25.096Z,0
2017-11-12T04:19:26.706Z,0
2017-11-12T04:20:28.320Z,0
2017-11-12T04:21:29.941Z,0
2017-11-12T04:22:31.553Z,0
2017-11-12T04:23:33.242Z,0
2017-11-12T04:24:34.901Z,0
2017-11-12T04:25:36.514Z,0
2017-11-12T04:26:38.126Z,0
2017-11-12T04:27:39.819Z,0
2017-11-12T04:28:41.489Z,0
2017-11-12T04:29:43.100Z,0
2017-11-12T04:30:44.781Z,0
2017-11-12T04:31:46.399Z,0
2017-11-12T04:32:48.022Z,0
2017-11-12T04:33:49.633Z,0
2017-11-12T04:34:51.267Z,0
2017-11-12T04:35:52.895Z,0
2017-11-12T04:36:54.507Z,0
2017-11-12T04:37:56.166Z,0
2017-11-12T04:38:57.801Z,0
2017-11-12T04:39:59.465Z,0
2017-11-12T04:41:01.060Z,0
2017-11-12T04:42:02.714Z,0
2017-11-12T04:43:04.373Z,0
2017-11-12T04:44:06.035Z,0
2017-11-12T04:45:07.643Z,0
2017-11-12T04:46:09.259Z,0
2017-11-12T04:47:10.866Z,0
2017-11-12T04:48:12.478Z,0
2017-11-12T04:49:14.092Z,0
2017-11-12T04:50:15.775Z,0
2017-11-12T04:51:17.462Z,0
2017-11-12T04:52:19.078Z,0
2017-11-12T04:53:20.695Z,0
2017-11-12T04:54:22.379Z,0
2017-11-12T04:55:24.003Z,0
2017-11-12T04:56:25.617Z,0
2017-11-12T04:57:27.288Z,0
2017-11-12T04:58:28.894Z,0
2017-11-12T04:59:30.566Z,0
2017-11-12T05:00:32.197Z,0
2017-11-12T05:01:33.894Z,0
2017-11-12T05:02:35.501Z,0
2017-11-12T05:03:37.150Z,0
2017-11-12T05:04:38.757Z,0
2017-11-12T05:05:40.407Z,0
2017-11-12T05:06:42.063Z,0
2017-11-12T05:07:43.722Z,0
2017-11-12T05:08:45.340Z,0
2017-11-12T05:09:46.998Z,0
2017-11-12T05:10:48.615Z,0
2017-11-12T05:11:50.294Z,0
2017-11-12T05:12:51.902Z,0
2017-11-12T05:13:53.522Z,0
2017-11-12T05:14:55.188Z,0
2017-11-12T05:15:56.838Z,0
2017-11-12T05:16:58.507Z,0
2017-11-12T05:18:00.133Z,0
2017-11-12T05:19:01.812Z,0
2017-11-12T05:20:03.429Z,0
2017-11-12T05:21:05.039Z,0
2017-11-12T05:22:06.717Z,0
2017-11-12T05:23:08.341Z,0
2017-11-12T05:24:09.983Z,0
2017-11-12T05:25:11.614Z,0
2017-11-12T05:26:13.231Z,0
2017-11-12T05:27:14.908Z,0
2017-11-12T05:28:16.510Z,0
2017-11-12T05:29:18.213Z,0
2017-11-12T05:30:19.865Z,0
2017-11-12T05:31:21.508Z,0
2017-11-12T05:32:23.198Z,0
2017-11-12T05:33:24.805Z,0
2017-11-12T05:34:26.443Z,0
2017-11-12T05:35:28.067Z,0
2017-11-12T05:36:29.730Z,0
2017-11-12T05:37:31.403Z,0
2017-11-12T05:38:33.073Z,0
2017-11-12T05:39:34.761Z,0
2017-11-12T05:40:36.374Z,0
2017-11-12T05:41:38.033Z,0
2017-11-12T05:42:39.704Z,0
2017-11-12T05:43:41.316Z,0
2017-11-12T05:44:42.929Z,0
2017-11-12T05:45:44.613Z,0
2017-11-12T05:46:46.236Z,0
2017-11-12T05:47:47.908Z,0
2017-11-12T05:48:49.515Z,0
2017-11-12T05:49:51.126Z,0
2017-11-12T05:50:52.755Z,0
2017-11-12T05:51:54.409Z,0
2017-11-12T05:52:56.030Z,0
2017-11-12T05:53:57.710Z,0
2017-11-12T05:54:59.345Z,0
2017-11-12T05:56:01.031Z,0
2017-11-12T05:57:02.696Z,0
2017-11-12T05:58:04.371Z,0
2017-11-12T05:59:05.992Z,0
2017-11-12T06:00:07.662Z,0
2017-11-12T06:01:09.273Z,0
2017-11-12T06:02:10.887Z,0
2017-11-12T06:03:12.503Z,0
2017-11-12T06:04:14.113Z,0
2017-11-12T06:05:15.728Z,0
2017-11-12T06:06:17.337Z,0
2017-11-12T06:07:18.950Z,0
2017-11-12T06:08:20.559Z,0
2017-11-12T06:09:22.219Z,0
2017-11-12T06:10:23.882Z,0
2017-11-12T06:11:25.493Z,0
2017-11-12T06:12:27.144Z,0
2017-11-12T06:13:28.847Z,0
2017-11-12T06:14:30.481Z,0
2017-11-12T06:15:32.085Z,0
2017-11-12T06:16:33.753Z,0
2017-11-12T06:17:35.367Z,0
2017-11-12T06:18:37.030Z,0
2017-11-12T06:19:38.644Z,0
2017-11-12T06:20:40.255Z,0
2017-11-12T06:21:41.882Z,4
2017-11-12T06:22:43.490Z,4
2017-11-12T06:23:45.169Z,0
2017-11-12T06:24:46.800Z,4
2017-11-12T06:25:48.407Z,4
2017-11-12T06:26:50.022Z,4
2017-11-12T06:27:51.630Z,8
2017-11-12T06:28:53.241Z,4
2017-11-12T06:29:54.859Z,8
2017-11-12T06:30:56.459Z,12
2017-11-12T06:31:58.069Z,8
2017-11-12T06:32:59.679Z,12
2017-11-12T06:34:01.292Z,12
2017-11-12T06:35:02.900Z,16
2017-11-12T06:36:04.511Z,16
2017-11-12T06:37:06.123Z,16
2017-11-12T06:38:07.735Z,16
2017-11-12T06:39:09.350Z,24
2017-11-12T06:40:10.959Z,24
2017-11-12T06:41:12.570Z,24
2017-11-12T06:42:14.181Z,28
2017-11-12T06:43:15.790Z,32
2017-11-12T06:44:17.400Z,36
2017-11-12T06:45:19.009Z,40
2017-11-12T06:46:20.628Z,44
2017-11-12T06:47:22.235Z,52
2017-11-12T06:48:23.846Z,56
2017-11-12T06:49:25.456Z,64
2017-11-12T06:50:27.065Z,68
2017-11-12T06:51:28.675Z,76
2017-11-12T06:52:30.285Z,80
2017-11-12T06:53:31.898Z,84
2017-11-12T06:54:33.507Z,84
2017-11-12T06:55:35.123Z,88
2017-11-12T06:56:36.730Z,84
2017-11-12T06:57:38.340Z,84
2017-11-12T06:58:39.953Z,88
2017-11-12T06:59:41.566Z,92
2017-11-12T07:00:43.175Z,96
2017-11-12T07:01:45.403Z,100
2017-11-12T07:02:47.010Z,100
2017-11-12T07:03:48.619Z,100
2017-11-12T07:04:50.230Z,100
2017-11-12T07:05:51.840Z,100
2017-11-12T07:06:53.450Z,104
2017-11-12T07:07:55.063Z,104
2017-11-12T07:08:56.677Z,104
2017-11-12T07:09:58.293Z,100
2017-11-12T07:11:00.569Z,100
2017-11-12T07:12:02.179Z,104
2017-11-12T07:13:03.793Z,112
2017-11-12T07:14:05.541Z,124
2017-11-12T07:15:07.145Z,136
2017-11-12T07:16:08.759Z,148
2017-11-12T07:17:10.369Z,156
2017-11-12T07:18:13.554Z,164
2017-11-12T07:19:15.106Z,168
2017-11-12T07:20:16.737Z,168
2017-11-12T07:21:18.346Z,172
2017-11-12T07:22:19.959Z,176
2017-11-12T07:23:21.575Z,172
2017-11-12T07:24:23.189Z,172
2017-11-12T07:25:24.820Z,184
2017-11-12T07:26:26.430Z,208
2017-11-12T07:27:28.040Z,236
2017-11-12T07:28:29.692Z,272
2017-11-12T07:29:31.267Z,304
2017-11-12T07:30:32.893Z,340
2017-11-12T07:31:34.498Z,384
2017-11-12T07:32:36.108Z,416
2017-11-12T07:33:37.722Z,440
2017-11-12T07:34:39.390Z,484
2017-11-12T07:35:41.002Z,552
2017-11-12T07:36:42.616Z,608
2017-11-12T07:37:44.241Z,640
2017-11-12T07:38:45.858Z,644
2017-11-12T07:39:47.468Z,620
2017-11-12T07:40:49.081Z,584
2017-11-12T07:41:50.691Z,544
2017-11-12T07:42:52.308Z,516
2017-11-12T07:43:53.919Z,500
2017-11-12T07:44:55.535Z,492
2017-11-12T07:45:57.153Z,484
2017-11-12T07:46:58.761Z,472
2017-11-12T07:48:00.375Z,464
2017-11-12T07:49:01.985Z,456
2017-11-12T07:50:03.630Z,448
2017-11-12T07:51:05.247Z,432
2017-11-12T07:52:06.855Z,416
2017-11-12T07:53:08.473Z,388
2017-11-12T07:54:10.083Z,360
2017-11-12T07:55:11.700Z,320
2017-11-12T07:56:13.309Z,292
2017-11-12T07:57:14.929Z,276
2017-11-12T07:58:16.534Z,264
2017-11-12T07:59:18.152Z,272
2017-11-12T08:00:19.766Z,296
2017-11-12T08:01:21.380Z,312
2017-11-12T08:02:23.017Z,320
2017-11-12T08:03:24.609Z,308
2017-11-12T08:04:26.224Z,280
2017-11-12T08:05:27.842Z,260
2017-11-12T08:06:29.482Z,252
2017-11-12T08:07:31.089Z,252
2017-11-12T08:08:32.724Z,256
2017-11-12T08:09:34.340Z,268
2017-11-12T08:10:36.027Z,280
2017-11-12T08:11:37.748Z,300
2017-11-12T08:12:39.487Z,320
2017-11-12T08:13:41.208Z,332
2017-11-12T08:14:42.832Z,340
2017-11-12T08:15:44.562Z,344
2017-11-12T08:16:46.178Z,352
2017-11-12T08:17:47.799Z,356
2017-11-12T08:18:49.442Z,340
2017-11-12T08:19:51.076Z,312
2017-11-12T08:20:52.696Z,284
2017-11-12T08:21:54.345Z,276
2017-11-12T08:22:55.956Z,260
2017-11-12T08:23:57.627Z,248
2017-11-12T08:24:59.319Z,252
2017-11-12T08:26:00.936Z,268
2017-11-12T08:27:02.551Z,292
2017-11-12T08:28:04.166Z,320
2017-11-12T08:29:05.799Z,340
2017-11-12T08:30:07.411Z,336
2017-11-12T08:31:09.060Z,324
2017-11-12T08:32:10.696Z,336
2017-11-12T08:33:12.417Z,336
2017-11-12T08:34:14.084Z,308
2017-11-12T08:35:15.932Z,256
2017-11-12T08:36:17.352Z,236
2017-11-12T08:37:18.967Z,268
2017-11-12T08:38:20.586Z,284
2017-11-12T08:39:22.208Z,284
2017-11-12T08:40:23.934Z,280
2017-11-12T08:41:25.543Z,312
2017-11-12T08:42:27.190Z,380
2017-11-12T08:43:28.796Z,468
2017-11-12T08:44:30.407Z,536
2017-11-12T08:45:32.025Z,580
2017-11-12T08:46:33.686Z,624
2017-11-12T08:47:35.340Z,684
2017-11-12T08:48:37.040Z,760
2017-11-12T08:49:38.678Z,856
2017-11-12T08:50:40.291Z,924
2017-11-12T08:51:41.964Z,928
2017-11-12T08:52:43.653Z,904
2017-11-12T08:53:45.273Z,848
2017-11-12T08:54:46.957Z,780
2017-11-12T08:55:48.664Z,732
2017-11-12T08:56:50.275Z,708
2017-11-12T08:57:51.973Z,696
2017-11-12T08:58:53.592Z,696
2017-11-12T08:59:55.231Z,700
2017-11-12T09:00:57.175Z,704
2017-11-12T09:01:58.872Z,680
2017-11-12T09:03:00.591Z,620
2017-11-12T09:04:02.253Z,548
2017-11-12T09:05:03.920Z,544
2017-11-12T09:06:05.657Z,592
2017-11-12T09:07:07.422Z,644
2017-11-12T09:08:09.128Z,684
2017-11-12T09:09:11.061Z,708
2017-11-12T09:10:12.728Z,704
2017-11-12T09:11:14.518Z,684
2017-11-12T09:12:16.248Z,664
2017-11-12T09:13:18.061Z,692
2017-11-12T09:14:19.780Z,760
2017-11-12T09:15:21.826Z,836
2017-11-12T09:16:23.777Z,896
2017-11-12T09:17:25.551Z,964
2017-11-12T09:18:27.182Z,1028
2017-11-12T09:19:28.945Z,1104
2017-11-12T09:20:30.729Z,1212
2017-11-12T09:21:32.493Z,1288
2017-11-12T09:22:34.483Z,1260
2017-11-12T09:23:36.284Z,1160
2017-11-12T09:24:38.263Z,1184
2017-11-12T09:25:40.029Z,1332
2017-11-12T09:26:41.712Z,1520
2017-11-12T09:27:43.319Z,1660
2017-11-12T09:28:45.012Z,1624
2017-11-12T09:29:46.690Z,1504
2017-11-12T09:30:48.297Z,1568
2017-11-12T09:31:49.916Z,1440
2017-11-12T09:32:51.605Z,1204
2017-11-12T09:33:53.352Z,1212
2017-11-12T09:34:55.056Z,1324
2017-11-12T09:35:56.673Z,1404
2017-11-12T09:36:58.286Z,1380
2017-11-12T09:37:59.917Z,1276
2017-11-12T09:39:01.576Z,1164
2017-11-12T09:40:03.209Z,1140
2017-11-12T09:41:04.845Z,1116
2017-11-12T09:42:06.586Z,1080
2017-11-12T09:43:08.422Z,1188
2017-11-12T09:44:10.030Z,1420
2017-11-12T09:45:11.719Z,1540
2017-11-12T09:46:13.434Z,1624
2017-11-12T09:47:15.089Z,1708
2017-11-12T09:48:16.733Z,1816
2017-11-12T09:49:18.324Z,1948
2017-11-12T09:50:19.937Z,2008
2017-11-12T09:51:21.572Z,1972
2017-11-12T09:52:23.193Z,1828
2017-11-12T09:53:24.820Z,1664
2017-11-12T09:54:26.461Z,1592
2017-11-12T09:55:28.077Z,1608
2017-11-12T09:56:29.706Z,1624
2017-11-12T09:57:31.318Z,1628
2017-11-12T09:58:32.935Z,1636
2017-11-12T09:59:34.750Z,1640
2017-11-12T10:00:36.388Z,1632
2017-11-12T10:01:38.002Z,1608
2017-11-12T10:02:39.634Z,1600
2017-11-12T10:03:41.233Z,1608
2017-11-12T10:04:42.849Z,1616
2017-11-12T10:05:44.461Z,1612
2017-11-12T10:06:46.093Z,1608
2017-11-12T10:07:47.729Z,1588
2017-11-12T10:08:49.322Z,1544
2017-11-12T10:09:50.939Z,1480
2017-11-12T10:10:52.553Z,1432
2017-11-12T10:11:54.169Z,1408
2017-11-12T10:12:55.784Z,1408
2017-11-12T10:13:57.399Z,1420
2017-11-12T10:14:59.013Z,1436
2017-11-12T10:16:00.632Z,1436
2017-11-12T10:17:02.247Z,1400
2017-11-12T10:18:03.862Z,1296
2017-11-12T10:19:05.476Z,1164
2017-11-12T10:20:07.088Z,1024
2017-11-12T10:21:08.705Z,912
2017-11-12T10:22:10.319Z,904
2017-11-12T10:23:11.934Z,956
2017-11-12T10:24:13.550Z,1096
2017-11-12T10:25:15.160Z,1188
2017-11-12T10:26:16.795Z,1152
2017-11-12T10:27:18.389Z,1156
2017-11-12T10:28:20.039Z,1236
2017-11-12T10:29:21.652Z,1224
2017-11-12T10:30:23.269Z,1080
2017-11-12T10:31:24.883Z,992
2017-11-12T10:32:26.495Z,976
2017-11-12T10:33:28.114Z,1020
2017-11-12T10:34:29.727Z,1012
2017-11-12T10:35:31.338Z,988
2017-11-12T10:36:32.951Z,908
2017-11-12T10:37:34.565Z,812
2017-11-12T10:38:36.178Z,728
2017-11-12T10:39:37.794Z,664
2017-11-12T10:40:39.405Z,588
2017-11-12T10:41:41.017Z,480
2017-11-12T10:42:42.630Z,396
2017-11-12T10:43:44.242Z,348
2017-11-12T10:44:45.855Z,308
2017-11-12T10:45:47.490Z,268
2017-11-12T10:46:49.081Z,232
2017-11-12T10:47:50.692Z,224
2017-11-12T10:48:52.300Z,240
2017-11-12T10:49:53.922Z,260
2017-11-12T10:50:55.534Z,248
2017-11-12T10:51:57.146Z,236
2017-11-12T10:52:58.762Z,232
2017-11-12T10:54:00.375Z,204
2017-11-12T10:55:01.983Z,208
2017-11-12T10:56:03.596Z,272
2017-11-12T10:57:05.206Z,304
2017-11-12T10:58:06.827Z,384
2017-11-12T10:59:08.433Z,456
2017-11-12T11:00:10.048Z,500
2017-11-12T11:01:11.661Z,528
2017-11-12T11:02:13.271Z,496
2017-11-12T11:03:14.883Z,528
2017-11-12T11:04:16.496Z,748
2017-11-12T11:05:18.111Z,964
2017-11-12T11:06:19.721Z,924
2017-11-12T11:07:21.338Z,1076
2017-11-12T11:08:22.954Z,1104
2017-11-12T11:09:24.581Z,1108
2017-11-12T11:10:26.199Z,1148
2017-11-12T11:11:27.817Z,1060
2017-11-12T11:12:29.430Z,1128
2017-11-12T11:13:31.046Z,1216
2017-11-12T11:14:32.664Z,1380
2017-11-12T11:15:34.278Z,1484
2017-11-12T11:16:35.891Z,1572
2017-11-12T11:17:37.505Z,1776
2017-11-12T11:18:39.119Z,1856
2017-11-12T11:19:40.734Z,1964
2017-11-12T11:20:42.352Z,1924
2017-11-12T11:21:43.967Z,1812
2017-11-12T11:22:45.582Z,1748
2017-11-12T11:23:47.193Z,1696
2017-11-12T11:24:48.807Z,1648
2017-11-12T11:25:50.424Z,1584
2017-11-12T11:26:52.039Z,1564
2017-11-12T11:27:53.653Z,1584
2017-11-12T11:28:55.270Z,1632
2017-11-12T11:29:56.889Z,1676
2017-11-12T11:30:58.498Z,1708
2017-11-12T11:32:00.112Z,1716
2017-11-12T11:33:01.734Z,1716
2017-11-12T11:34:03.343Z,1772
2017-11-12T11:35:04.960Z,1856
2017-11-12T11:36:06.576Z,2012
2017-11-12T11:37:08.188Z,2164
2017-11-12T11:38:09.802Z,2308
2017-11-12T11:39:11.424Z,2364
2017-11-12T11:40:13.032Z,2456
2017-11-12T11:41:14.649Z,2536
2017-11-12T11:42:16.261Z,2636
2017-11-12T11:43:17.882Z,2788
2017-11-12T11:44:19.497Z,2940
2017-11-12T11:45:21.117Z,3012
2017-11-12T11:46:22.731Z,2960
2017-11-12T11:47:24.346Z,3016
2017-11-12T11:48:25.963Z,3304
2017-11-12T11:49:27.579Z,2796
2017-11-12T11:50:29.198Z,1988
2017-11-12T11:51:30.809Z,1596
2017-11-12T11:52:32.432Z,1556
2017-11-12T11:53:34.034Z,1492
2017-11-12T11:54:35.650Z,1484
2017-11-12T11:55:37.264Z,1448
2017-11-12T11:56:38.881Z,1660
2017-11-12T11:57:40.501Z,2120
2017-11-12T11:58:42.107Z,2260
2017-11-12T11:59:43.734Z,2572
2017-11-12T12:00:45.347Z,2620
2017-11-12T12:01:46.965Z,2520
2017-11-12T12:02:48.578Z,2392
2017-11-12T12:03:50.191Z,2296
2017-11-12T12:04:51.810Z,2188
2017-11-12T12:05:53.424Z,2100
2017-11-12T12:06:55.036Z,2164
2017-11-12T12:07:56.647Z,2304
2017-11-12T12:08:58.264Z,2348
2017-11-12T12:09:59.886Z,2316
2017-11-12T12:11:01.508Z,2292
2017-11-12T12:12:03.118Z,2284
2017-11-12T12:13:04.729Z,2368
2017-11-12T12:14:06.345Z,2508
2017-11-12T12:15:07.965Z,2792
2017-11-12T12:16:09.582Z,3324
2017-11-12T12:17:11.196Z,4260
2017-11-12T12:18:12.812Z,4888
2017-11-12T12:19:14.430Z,5228
2017-11-12T12:20:16.057Z,5340
2017-11-12T12:21:17.674Z,5880
2017-11-12T12:22:19.293Z,5592
2017-11-12T12:23:20.907Z,4848
2017-11-12T12:24:22.523Z,4340
2017-11-12T12:25:24.136Z,3852
2017-11-12T12:26:25.760Z,3652
2017-11-12T12:27:27.376Z,4020
2017-11-12T12:28:28.990Z,5560
2017-11-12T12:29:30.601Z,7860
2017-11-12T12:30:32.225Z,9336
2017-11-12T12:31:33.842Z,9520
2017-11-12T12:32:35.456Z,8596
2017-11-12T12:33:37.074Z,7528
2017-11-12T12:34:38.688Z,5696
2017-11-12T12:35:40.294Z,3716
2017-11-12T12:36:41.923Z,2644
2017-11-12T12:37:43.539Z,2464
2017-11-12T12:38:45.154Z,2856
2017-11-12T12:39:46.767Z,3928
2017-11-12T12:40:48.387Z,14912
2017-11-12T12:41:50.002Z,8844
2017-11-12T12:42:51.623Z,10100
2017-11-12T12:43:53.234Z,6916
2017-11-12T12:44:54.852Z,17312
2017-11-12T12:45:56.479Z,7548
2017-11-12T12:46:58.081Z,5964
2017-11-12T12:47:59.697Z,3952
2017-11-12T12:49:01.309Z,2812
2017-11-12T12:50:02.924Z,2088
2017-11-12T12:51:04.534Z,1904
2017-11-12T12:52:06.150Z,1592
2017-11-12T12:53:07.764Z,1300
2017-11-12T12:54:09.379Z,1384
2017-11-12T12:55:10.997Z,1740
2017-11-12T12:56:12.609Z,1932
2017-11-12T12:57:14.221Z,2528
2017-11-12T12:58:15.847Z,2664
2017-11-12T12:59:17.634Z,2680
2017-11-12T13:00:19.253Z,3108
2017-11-12T13:01:20.868Z,3364
2017-11-12T13:02:22.483Z,3428
2017-11-12T13:03:24.094Z,2788
2017-11-12T13:04:25.707Z,2944
2017-11-12T13:05:27.328Z,3108
2017-11-12T13:06:28.938Z,2812
2017-11-12T13:07:30.550Z,2460
2017-11-12T13:08:33.132Z,2336
2017-11-12T13:09:34.723Z,2664
2017-11-12T13:10:36.331Z,2984
2017-11-12T13:11:37.945Z,2300
2017-11-12T13:12:39.563Z,2492
2017-11-12T13:13:41.176Z,3096
2017-11-12T13:14:42.790Z,3128
2017-11-12T13:15:44.405Z,3028
2017-11-12T13:16:46.934Z,2520
2017-11-12T13:17:48.514Z,2360
2017-11-12T13:18:50.132Z,3048
2017-11-12T13:19:51.741Z,4404
2017-11-12T13:20:53.358Z,4836
2017-11-12T13:21:55.579Z,4136
2017-11-12T13:22:57.198Z,3840
2017-11-12T13:23:58.814Z,2888
2017-11-12T13:25:00.426Z,2564
2017-11-12T13:26:02.040Z,1956
2017-11-12T13:27:03.651Z,1344
2017-11-12T13:28:05.262Z,932
2017-11-12T13:29:06.872Z,728
2017-11-12T13:30:08.486Z,804
2017-11-12T13:31:10.112Z,1008
2017-11-12T13:32:11.714Z,1116
2017-11-12T13:33:13.331Z,1764
2017-11-12T13:34:16.022Z,3060
2017-11-12T13:35:17.639Z,3176
2017-11-12T13:36:19.255Z,3224
2017-11-12T13:37:20.868Z,2908
2017-11-12T13:38:22.947Z,2396
2017-11-12T13:39:24.555Z,1876
2017-11-12T13:40:26.168Z,1456
2017-11-12T13:41:27.795Z,1212
2017-11-12T13:42:29.415Z,1044
2017-11-12T13:43:31.023Z,896
2017-11-12T13:44:32.635Z,752
2017-11-12T13:45:34.247Z,692
2017-11-12T13:46:35.858Z,568
2017-11-12T13:47:37.468Z,496
2017-11-12T13:48:39.081Z,416
2017-11-12T13:49:41.693Z,276
2017-11-12T13:50:43.304Z,280
2017-11-12T13:51:44.915Z,392
2017-11-12T13:52:46.526Z,440
2017-11-12T13:53:48.188Z,444
2017-11-12T13:54:49.799Z,472
2017-11-12T13:55:51.413Z,564
2017-11-12T13:56:53.026Z,712
2017-11-12T13:57:54.638Z,964
2017-11-12T13:58:56.251Z,1392
2017-11-12T13:59:57.867Z,1852
2017-11-12T14:00:59.482Z,2152
2017-11-12T14:02:01.095Z,2148
2017-11-12T14:03:02.718Z,1996
2017-11-12T14:04:04.333Z,1964
2017-11-12T14:05:05.971Z,1852
2017-11-12T14:06:07.632Z,1880
2017-11-12T14:07:09.246Z,1968
2017-11-12T14:08:10.858Z,2164
2017-11-12T14:09:12.469Z,2096
2017-11-12T14:10:14.092Z,1764
2017-11-12T14:11:15.708Z,1388
2017-11-12T14:12:17.320Z,1260
2017-11-12T14:13:18.935Z,1220
2017-11-12T14:14:20.545Z,1096
2017-11-12T14:15:22.168Z,1304
2017-11-12T14:16:23.782Z,1476
2017-11-12T14:17:25.395Z,1900
2017-11-12T14:18:27.009Z,1516
2017-11-12T14:19:28.620Z,1308
2017-11-12T14:20:30.281Z,1320
2017-11-12T14:21:31.895Z,1476
2017-11-12T14:22:33.509Z,1148
2017-11-12T14:23:35.134Z,888
2017-11-12T14:24:36.738Z,848
2017-11-12T14:25:38.383Z,1044
2017-11-12T14:26:39.996Z,1080
2017-11-12T14:27:41.611Z,1220